sensor_id;sensor_type;location;lat;lon;timestamp;pressure;altitude;pressure_sealevel;temperature;humidity
22481;BME280;11407;56.964;-2.212;2022-09-30T00:01:32;100571.50;;;23.38;46.95
22481;BME280;11407;56.964;-2.212;2022-09-30T00:03:58;100568.59;;;23.39;46.83
22481;BME280;11407;56.964;-2.212;2022-09-30T00:06:26;100566.56;;;23.48;46.68
22481;BME280;11407;56.964;-2.212;2022-09-30T00:08:52;100569.63;;;23.32;47.13
22481;BME280;11407;56.964;-2.212;2022-09-30T00:11:23;100566.94;;;23.32;46.97
22481;BME280;11407;56.964;-2.212;2022-09-30T00:13:50;100563.97;;;23.14;47.22
22481;BME280;11407;56.964;-2.212;2022-09-30T00:16:17;100561.03;;;23.09;47.68
22481;BME280;11407;56.964;-2.212;2022-09-30T00:18:43;100554.22;;;23.13;47.09
22481;BME280;11407;56.964;-2.212;2022-09-30T00:21:10;100559.78;;;23.05;47.18
22481;BME280;11407;56.964;-2.212;2022-09-30T00:23:36;100557.25;;;22.97;47.46
22481;BME280;11407;56.964;-2.212;2022-09-30T00:26:09;100544.75;;;22.83;47.88
22481;BME280;11407;56.964;-2.212;2022-09-30T00:28:37;100551.44;;;23.00;47.24
22481;BME280;11407;56.964;-2.212;2022-09-30T00:31:05;100554.97;;;23.00;47.49
22481;BME280;11407;56.964;-2.212;2022-09-30T00:33:31;100561.56;;;22.98;47.80
22481;BME280;11407;56.964;-2.212;2022-09-30T00:35:57;100554.94;;;22.94;47.82
22481;BME280;11407;56.964;-2.212;2022-09-30T00:38:22;100548.50;;;22.88;48.19
22481;BME280;11407;56.964;-2.212;2022-09-30T00:40:48;100554.31;;;22.92;48.07
22481;BME280;11407;56.964;-2.212;2022-09-30T00:43:42;100538.78;;;22.87;47.90
22481;BME280;11407;56.964;-2.212;2022-09-30T00:46:37;100526.63;;;22.91;48.19
22481;BME280;11407;56.964;-2.212;2022-09-30T00:49:13;100524.28;;;22.82;48.37
22481;BME280;11407;56.964;-2.212;2022-09-30T00:51:43;100517.88;;;23.23;47.39
22481;BME280;11407;56.964;-2.212;2022-09-30T00:54:13;100519.28;;;23.19;47.30
22481;BME280;11407;56.964;-2.212;2022-09-30T00:56:47;100511.88;;;23.28;47.10
22481;BME280;11407;56.964;-2.212;2022-09-30T00:59:18;100516.31;;;23.01;47.68
22481;BME280;11407;56.964;-2.212;2022-09-30T01:01:43;100513.50;;;22.76;48.39
22481;BME280;11407;56.964;-2.212;2022-09-30T01:04:11;100506.25;;;22.76;48.08
22481;BME280;11407;56.964;-2.212;2022-09-30T01:06:39;100511.03;;;22.74;48.21
22481;BME280;11407;56.964;-2.212;2022-09-30T01:09:04;100488.97;;;22.91;47.64
22481;BME280;11407;56.964;-2.212;2022-09-30T01:11:30;100492.72;;;22.97;47.67
22481;BME280;11407;56.964;-2.212;2022-09-30T01:13:59;100490.72;;;23.12;47.25
22481;BME280;11407;56.964;-2.212;2022-09-30T01:36:28;100427.44;;;23.22;46.88
22481;BME280;11407;56.964;-2.212;2022-09-30T01:39:25;100418.97;;;23.25;47.06
22481;BME280;11407;56.964;-2.212;2022-09-30T01:42:05;100409.03;;;23.32;46.68
22481;BME280;11407;56.964;-2.212;2022-09-30T01:47:32;100421.03;;;23.17;47.13
22481;BME280;11407;56.964;-2.212;2022-09-30T01:52:39;100404.06;;;23.23;46.69
22481;BME280;11407;56.964;-2.212;2022-09-30T01:55:20;100397.16;;;23.01;47.34
22481;BME280;11407;56.964;-2.212;2022-09-30T02:00:13;100383.19;;;23.38;46.85
22481;BME280;11407;56.964;-2.212;2022-09-30T02:02:51;100377.38;;;23.34;46.50
22481;BME280;11407;56.964;-2.212;2022-09-30T02:05:26;100367.66;;;23.27;46.72
22481;BME280;11407;56.964;-2.212;2022-09-30T02:08:06;100356.50;;;23.43;46.08
22481;BME280;11407;56.964;-2.212;2022-09-30T02:10:39;100353.59;;;23.25;46.65
22481;BME280;11407;56.964;-2.212;2022-09-30T02:13:24;100343.84;;;23.30;46.29
22481;BME280;11407;56.964;-2.212;2022-09-30T02:15:55;100350.47;;;23.21;46.62
22481;BME280;11407;56.964;-2.212;2022-09-30T02:18:33;100342.56;;;22.94;47.08
22481;BME280;11407;56.964;-2.212;2022-09-30T02:21:03;100332.69;;;23.07;47.04
22481;BME280;11407;56.964;-2.212;2022-09-30T02:23:34;100321.28;;;23.05;47.11
22481;BME280;11407;56.964;-2.212;2022-09-30T02:28:44;100306.41;;;23.09;46.90
22481;BME280;11407;56.964;-2.212;2022-09-30T02:31:14;100304.97;;;23.07;46.81
22481;BME280;11407;56.964;-2.212;2022-09-30T02:33:48;100297.09;;;23.05;46.86
22481;BME280;11407;56.964;-2.212;2022-09-30T02:36:25;100297.94;;;23.32;46.49
22481;BME280;11407;56.964;-2.212;2022-09-30T02:38:59;100296.44;;;23.03;46.96
22481;BME280;11407;56.964;-2.212;2022-09-30T02:41:28;100283.44;;;23.00;47.15
22481;BME280;11407;56.964;-2.212;2022-09-30T02:43:55;100276.59;;;22.98;47.14
22481;BME280;11407;56.964;-2.212;2022-09-30T02:46:36;100281.97;;;22.91;46.79
22481;BME280;11407;56.964;-2.212;2022-09-30T02:49:29;100272.28;;;22.97;46.88
22481;BME280;11407;56.964;-2.212;2022-09-30T03:00:07;100241.22;;;22.94;47.15
22481;BME280;11407;56.964;-2.212;2022-09-30T03:02:34;100241.63;;;22.98;46.96
22481;BME280;11407;56.964;-2.212;2022-09-30T03:04:59;100223.44;;;22.93;47.31
22481;BME280;11407;56.964;-2.212;2022-09-30T03:07:25;100218.31;;;23.05;46.88
22481;BME280;11407;56.964;-2.212;2022-09-30T03:09:55;100205.69;;;23.05;46.73
22481;BME280;11407;56.964;-2.212;2022-09-30T03:20:57;100177.09;;;23.04;46.42
22481;BME280;11407;56.964;-2.212;2022-09-30T03:23:41;100175.25;;;22.98;46.58
22481;BME280;11407;56.964;-2.212;2022-09-30T03:29:35;100156.44;;;22.98;46.22
22481;BME280;11407;56.964;-2.212;2022-09-30T03:40:34;100127.50;;;23.13;45.77
22481;BME280;11407;56.964;-2.212;2022-09-30T03:43:11;100124.22;;;23.05;46.14
22481;BME280;11407;56.964;-2.212;2022-09-30T03:45:47;100107.84;;;23.06;46.33
22481;BME280;11407;56.964;-2.212;2022-09-30T03:48:15;100103.94;;;22.96;46.43
22481;BME280;11407;56.964;-2.212;2022-09-30T03:50:43;100089.66;;;22.95;46.44
22481;BME280;11407;56.964;-2.212;2022-09-30T03:53:10;100074.53;;;23.01;46.14
22481;BME280;11407;56.964;-2.212;2022-09-30T03:55:50;100064.84;;;22.93;45.90
22481;BME280;11407;56.964;-2.212;2022-09-30T03:58:17;100063.00;;;22.87;46.52
22481;BME280;11407;56.964;-2.212;2022-09-30T04:00:48;100052.00;;;23.02;46.26
22481;BME280;11407;56.964;-2.212;2022-09-30T04:03:15;100052.03;;;22.95;46.43
22481;BME280;11407;56.964;-2.212;2022-09-30T04:05:40;100041.06;;;22.97;46.34
22481;BME280;11407;56.964;-2.212;2022-09-30T04:08:07;100034.47;;;22.86;46.60
22481;BME280;11407;56.964;-2.212;2022-09-30T04:10:32;100037.97;;;22.87;46.11
22481;BME280;11407;56.964;-2.212;2022-09-30T04:12:57;100020.16;;;22.99;46.23
22481;BME280;11407;56.964;-2.212;2022-09-30T04:15:23;100011.56;;;22.84;46.43
22481;BME280;11407;56.964;-2.212;2022-09-30T04:17:48;100008.41;;;22.87;46.48
22481;BME280;11407;56.964;-2.212;2022-09-30T04:20:14;100001.84;;;22.83;46.35
22481;BME280;11407;56.964;-2.212;2022-09-30T04:22:39;99999.34;;;22.75;46.71
22481;BME280;11407;56.964;-2.212;2022-09-30T04:25:05;99989.84;;;22.79;46.70
22481;BME280;11407;56.964;-2.212;2022-09-30T04:27:31;99979.88;;;22.86;46.61
22481;BME280;11407;56.964;-2.212;2022-09-30T04:29:56;99974.56;;;22.79;46.49
22481;BME280;11407;56.964;-2.212;2022-09-30T04:32:22;99962.34;;;22.77;46.62
22481;BME280;11407;56.964;-2.212;2022-09-30T04:34:47;99965.75;;;22.53;47.11
22481;BME280;11407;56.964;-2.212;2022-09-30T04:37:13;99957.44;;;22.68;47.06
22481;BME280;11407;56.964;-2.212;2022-09-30T04:39:38;99946.69;;;22.68;46.82
22481;BME280;11407;56.964;-2.212;2022-09-30T04:42:05;99953.28;;;22.72;46.78
22481;BME280;11407;56.964;-2.212;2022-09-30T04:44:31;99948.09;;;22.83;46.40
22481;BME280;11407;56.964;-2.212;2022-09-30T04:46:56;99950.16;;;22.81;46.47
22481;BME280;11407;56.964;-2.212;2022-09-30T04:49:22;99939.00;;;22.77;46.32
22481;BME280;11407;56.964;-2.212;2022-09-30T04:51:48;99931.50;;;22.86;46.17
22481;BME280;11407;56.964;-2.212;2022-09-30T04:54:13;99929.22;;;22.96;46.24
22481;BME280;11407;56.964;-2.212;2022-09-30T04:56:41;99904.78;;;22.97;46.19
22481;BME280;11407;56.964;-2.212;2022-09-30T04:59:06;99909.22;;;22.79;46.66
22481;BME280;11407;56.964;-2.212;2022-09-30T05:01:32;99902.34;;;22.89;46.34
22481;BME280;11407;56.964;-2.212;2022-09-30T05:03:57;99893.88;;;22.86;46.58
22481;BME280;11407;56.964;-2.212;2022-09-30T05:06:22;99885.22;;;22.84;46.67
22481;BME280;11407;56.964;-2.212;2022-09-30T05:08:48;99881.50;;;22.85;46.74
22481;BME280;11407;56.964;-2.212;2022-09-30T05:11:18;99877.41;;;22.76;46.95
22481;BME280;11407;56.964;-2.212;2022-09-30T05:13:44;99869.19;;;22.65;47.06
22481;BME280;11407;56.964;-2.212;2022-09-30T05:16:10;99858.84;;;22.68;47.17
22481;BME280;11407;56.964;-2.212;2022-09-30T05:18:37;99851.19;;;22.72;46.98
22481;BME280;11407;56.964;-2.212;2022-09-30T05:21:05;99838.16;;;22.69;47.43
22481;BME280;11407;56.964;-2.212;2022-09-30T05:23:31;99828.59;;;22.79;46.95
22481;BME280;11407;56.964;-2.212;2022-09-30T05:25:57;99825.78;;;22.68;47.13
22481;BME280;11407;56.964;-2.212;2022-09-30T05:28:23;99819.84;;;22.59;47.59
22481;BME280;11407;56.964;-2.212;2022-09-30T05:30:55;99820.69;;;22.90;46.84
22481;BME280;11407;56.964;-2.212;2022-09-30T05:33:22;99812.13;;;22.69;46.97
22481;BME280;11407;56.964;-2.212;2022-09-30T05:35:47;99803.53;;;22.54;47.41
22481;BME280;11407;56.964;-2.212;2022-09-30T05:38:13;99799.94;;;22.73;47.00
22481;BME280;11407;56.964;-2.212;2022-09-30T05:40:39;99794.78;;;22.65;46.82
22481;BME280;11407;56.964;-2.212;2022-09-30T05:43:05;99782.06;;;22.85;46.69
22481;BME280;11407;56.964;-2.212;2022-09-30T05:45:31;99785.28;;;22.93;46.60
22481;BME280;11407;56.964;-2.212;2022-09-30T05:47:57;99768.41;;;22.86;46.57
22481;BME280;11407;56.964;-2.212;2022-09-30T05:50:23;99758.50;;;22.80;46.88
22481;BME280;11407;56.964;-2.212;2022-09-30T05:52:48;99753.13;;;22.80;46.50
22481;BME280;11407;56.964;-2.212;2022-09-30T05:55:18;99749.34;;;22.88;46.67
22481;BME280;11407;56.964;-2.212;2022-09-30T05:57:49;99732.91;;;22.78;46.72
22481;BME280;11407;56.964;-2.212;2022-09-30T06:00:14;99728.59;;;22.71;46.89
22481;BME280;11407;56.964;-2.212;2022-09-30T06:02:40;99725.47;;;22.49;47.16
22481;BME280;11407;56.964;-2.212;2022-09-30T06:05:08;99721.06;;;22.61;47.28
22481;BME280;11407;56.964;-2.212;2022-09-30T06:07:34;99718.09;;;22.69;47.02
22481;BME280;11407;56.964;-2.212;2022-09-30T06:10:00;99718.88;;;23.00;46.07
22481;BME280;11407;56.964;-2.212;2022-09-30T06:12:26;99714.88;;;22.85;46.76
22481;BME280;11407;56.964;-2.212;2022-09-30T06:14:53;99714.38;;;22.94;46.31
22481;BME280;11407;56.964;-2.212;2022-09-30T06:17:19;99715.50;;;22.80;46.56
22481;BME280;11407;56.964;-2.212;2022-09-30T06:19:45;99704.19;;;22.78;46.61
22481;BME280;11407;56.964;-2.212;2022-09-30T06:22:10;99687.94;;;22.91;46.31
22481;BME280;11407;56.964;-2.212;2022-09-30T06:24:36;99692.09;;;22.63;46.83
22481;BME280;11407;56.964;-2.212;2022-09-30T06:27:01;99683.13;;;22.76;46.73
22481;BME280;11407;56.964;-2.212;2022-09-30T06:29:27;99674.56;;;22.85;46.49
22481;BME280;11407;56.964;-2.212;2022-09-30T06:31:52;99668.47;;;22.96;45.92
22481;BME280;11407;56.964;-2.212;2022-09-30T06:34:18;99661.06;;;22.91;46.35
22481;BME280;11407;56.964;-2.212;2022-09-30T06:36:43;99645.88;;;22.79;46.68
22481;BME280;11407;56.964;-2.212;2022-09-30T06:39:09;99656.53;;;22.68;46.86
22481;BME280;11407;56.964;-2.212;2022-09-30T06:41:34;99636.50;;;22.64;46.64
22481;BME280;11407;56.964;-2.212;2022-09-30T06:44:04;99624.38;;;22.79;46.77
22481;BME280;11407;56.964;-2.212;2022-09-30T06:46:29;99606.31;;;22.86;46.60
22481;BME280;11407;56.964;-2.212;2022-09-30T06:48:58;99615.66;;;23.08;46.34
22481;BME280;11407;56.964;-2.212;2022-09-30T06:51:24;99605.50;;;23.03;46.11
22481;BME280;11407;56.964;-2.212;2022-09-30T06:53:52;99597.75;;;22.95;46.37
22481;BME280;11407;56.964;-2.212;2022-09-30T06:56:18;99589.81;;;22.82;46.80
22481;BME280;11407;56.964;-2.212;2022-09-30T06:58:45;99590.03;;;22.81;47.06
22481;BME280;11407;56.964;-2.212;2022-09-30T07:01:12;99580.16;;;22.75;46.87
22481;BME280;11407;56.964;-2.212;2022-09-30T07:03:43;99578.09;;;22.77;46.68
22481;BME280;11407;56.964;-2.212;2022-09-30T07:06:10;99569.03;;;23.14;45.91
22481;BME280;11407;56.964;-2.212;2022-09-30T07:08:37;99550.94;;;23.03;45.82
22481;BME280;11407;56.964;-2.212;2022-09-30T07:11:06;99560.03;;;23.02;46.19
22481;BME280;11407;56.964;-2.212;2022-09-30T07:13:39;99549.28;;;23.02;45.90
22481;BME280;11407;56.964;-2.212;2022-09-30T07:16:04;99539.13;;;22.68;47.01
22481;BME280;11407;56.964;-2.212;2022-09-30T07:18:30;99533.34;;;23.07;45.74
22481;BME280;11407;56.964;-2.212;2022-09-30T07:20:56;99524.06;;;23.03;46.17
22481;BME280;11407;56.964;-2.212;2022-09-30T07:23:22;99522.13;;;23.10;46.15
22481;BME280;11407;56.964;-2.212;2022-09-30T07:25:53;99517.63;;;23.22;46.15
22481;BME280;11407;56.964;-2.212;2022-09-30T07:28:24;99512.66;;;23.07;45.81
22481;BME280;11407;56.964;-2.212;2022-09-30T07:30:57;99508.00;;;22.96;46.87
22481;BME280;11407;56.964;-2.212;2022-09-30T07:33:24;99495.72;;;23.07;46.57
22481;BME280;11407;56.964;-2.212;2022-09-30T07:35:53;99474.50;;;23.17;46.00
22481;BME280;11407;56.964;-2.212;2022-09-30T07:38:20;99471.72;;;23.23;46.07
22481;BME280;11407;56.964;-2.212;2022-09-30T07:41:04;99452.06;;;23.23;46.01
22481;BME280;11407;56.964;-2.212;2022-09-30T07:43:32;99459.41;;;23.16;46.36
22481;BME280;11407;56.964;-2.212;2022-09-30T07:46:11;99440.31;;;23.06;46.42
22481;BME280;11407;56.964;-2.212;2022-09-30T07:48:39;99431.69;;;22.97;46.70
22481;BME280;11407;56.964;-2.212;2022-09-30T07:53:45;99416.38;;;22.98;46.70
22481;BME280;11407;56.964;-2.212;2022-09-30T07:56:11;99389.47;;;22.86;46.72
22481;BME280;11407;56.964;-2.212;2022-09-30T07:58:37;99389.75;;;22.96;46.47
22481;BME280;11407;56.964;-2.212;2022-09-30T08:01:04;99376.56;;;23.24;45.93
22481;BME280;11407;56.964;-2.212;2022-09-30T08:03:38;99355.50;;;23.03;46.27
22481;BME280;11407;56.964;-2.212;2022-09-30T08:08:30;99353.59;;;22.92;46.32
22481;BME280;11407;56.964;-2.212;2022-09-30T08:11:03;99341.13;;;22.98;46.25
22481;BME280;11407;56.964;-2.212;2022-09-30T08:13:29;99328.00;;;22.78;46.89
22481;BME280;11407;56.964;-2.212;2022-09-30T08:15:54;99327.22;;;23.01;46.29
22481;BME280;11407;56.964;-2.212;2022-09-30T08:18:20;99317.81;;;23.10;46.44
22481;BME280;11407;56.964;-2.212;2022-09-30T08:20:46;99304.75;;;23.13;46.29
22481;BME280;11407;56.964;-2.212;2022-09-30T08:23:11;99286.03;;;23.18;45.66
22481;BME280;11407;56.964;-2.212;2022-09-30T08:25:38;99286.28;;;23.17;46.14
22481;BME280;11407;56.964;-2.212;2022-09-30T08:28:03;99286.28;;;23.17;46.23
22481;BME280;11407;56.964;-2.212;2022-09-30T08:30:29;99268.63;;;23.09;46.13
22481;BME280;11407;56.964;-2.212;2022-09-30T08:32:54;99242.44;;;23.05;46.72
22481;BME280;11407;56.964;-2.212;2022-09-30T08:35:19;99246.84;;;22.99;47.04
22481;BME280;11407;56.964;-2.212;2022-09-30T08:37:45;99252.78;;;22.90;46.91
22481;BME280;11407;56.964;-2.212;2022-09-30T08:40:40;99227.41;;;22.86;47.36
22481;BME280;11407;56.964;-2.212;2022-09-30T08:43:26;99215.28;;;22.95;47.12
22481;BME280;11407;56.964;-2.212;2022-09-30T08:46:10;99213.28;;;22.90;47.28
22481;BME280;11407;56.964;-2.212;2022-09-30T08:51:28;99186.19;;;22.92;47.27
22481;BME280;11407;56.964;-2.212;2022-09-30T08:53:56;99170.41;;;22.95;47.11
22481;BME280;11407;56.964;-2.212;2022-09-30T08:56:25;99175.56;;;22.97;47.21
22481;BME280;11407;56.964;-2.212;2022-09-30T09:01:35;99146.47;;;22.94;47.33
22481;BME280;11407;56.964;-2.212;2022-09-30T09:04:03;99149.50;;;22.97;47.44
22481;BME280;11407;56.964;-2.212;2022-09-30T09:06:40;99139.78;;;22.96;47.54
22481;BME280;11407;56.964;-2.212;2022-09-30T09:22:21;99111.41;;;23.12;47.19
22481;BME280;11407;56.964;-2.212;2022-09-30T09:24:49;99092.72;;;22.94;47.58
22481;BME280;11407;56.964;-2.212;2022-09-30T09:27:25;99090.59;;;23.07;47.32
22481;BME280;11407;56.964;-2.212;2022-09-30T09:30:00;99077.84;;;23.03;47.58
22481;BME280;11407;56.964;-2.212;2022-09-30T09:32:27;99077.03;;;23.02;47.30
22481;BME280;11407;56.964;-2.212;2022-09-30T09:35:08;99075.53;;;23.06;47.51
22481;BME280;11407;56.964;-2.212;2022-09-30T09:46:52;99029.16;;;22.77;48.00
22481;BME280;11407;56.964;-2.212;2022-09-30T09:54:30;99013.03;;;22.65;48.33
22481;BME280;11407;56.964;-2.212;2022-09-30T09:57:05;99009.31;;;22.55;48.84
22481;BME280;11407;56.964;-2.212;2022-09-30T09:59:31;98954.56;;;22.56;48.64
22481;BME280;11407;56.964;-2.212;2022-09-30T10:01:59;98968.75;;;22.79;48.12
22481;BME280;11407;56.964;-2.212;2022-09-30T10:04:28;98967.63;;;22.52;48.73
22481;BME280;11407;56.964;-2.212;2022-09-30T10:06:57;98967.50;;;22.36;49.01
22481;BME280;11407;56.964;-2.212;2022-09-30T10:09:37;98949.28;;;22.61;48.64
22481;BME280;11407;56.964;-2.212;2022-09-30T10:14:32;98918.81;;;22.55;48.57
22481;BME280;11407;56.964;-2.212;2022-09-30T10:16:59;98907.75;;;22.52;48.65
22481;BME280;11407;56.964;-2.212;2022-09-30T10:19:27;98903.28;;;22.46;48.93
22481;BME280;11407;56.964;-2.212;2022-09-30T10:24:35;98891.44;;;22.70;48.20
22481;BME280;11407;56.964;-2.212;2022-09-30T10:27:01;98890.44;;;22.59;48.78
22481;BME280;11407;56.964;-2.212;2022-09-30T10:29:32;98874.25;;;22.43;49.20
22481;BME280;11407;56.964;-2.212;2022-09-30T10:32:00;98846.69;;;22.47;49.29
22481;BME280;11407;56.964;-2.212;2022-09-30T10:34:37;98853.16;;;22.74;48.76
22481;BME280;11407;56.964;-2.212;2022-09-30T10:37:12;98847.31;;;23.05;48.01
22481;BME280;11407;56.964;-2.212;2022-09-30T10:39:41;98851.41;;;22.68;48.66
22481;BME280;11407;56.964;-2.212;2022-09-30T10:42:17;98828.28;;;22.67;49.14
22481;BME280;11407;56.964;-2.212;2022-09-30T10:44:54;98839.16;;;22.61;49.09
22481;BME280;11407;56.964;-2.212;2022-09-30T10:47:22;98824.81;;;22.55;49.16
22481;BME280;11407;56.964;-2.212;2022-09-30T10:52:27;98805.63;;;22.63;48.88
22481;BME280;11407;56.964;-2.212;2022-09-30T10:54:54;98804.38;;;22.54;48.99
22481;BME280;11407;56.964;-2.212;2022-09-30T10:57:33;98802.25;;;22.68;48.70
22481;BME280;11407;56.964;-2.212;2022-09-30T11:00:03;98785.75;;;22.76;48.60
22481;BME280;11407;56.964;-2.212;2022-09-30T11:02:33;98784.31;;;22.57;48.94
22481;BME280;11407;56.964;-2.212;2022-09-30T11:05:35;98774.22;;;22.64;48.91
22481;BME280;11407;56.964;-2.212;2022-09-30T11:10:57;98761.47;;;22.71;48.80
22481;BME280;11407;56.964;-2.212;2022-09-30T11:23:52;98691.53;;;22.66;49.20
22481;BME280;11407;56.964;-2.212;2022-09-30T11:26:38;98660.06;;;22.77;49.14
22481;BME280;11407;56.964;-2.212;2022-09-30T11:29:13;98686.25;;;22.71;49.20
22481;BME280;11407;56.964;-2.212;2022-09-30T11:37:03;98633.66;;;22.58;49.46
22481;BME280;11407;56.964;-2.212;2022-09-30T11:42:37;98620.88;;;22.81;48.96
22481;BME280;11407;56.964;-2.212;2022-09-30T11:50:51;98568.78;;;22.66;49.39
22481;BME280;11407;56.964;-2.212;2022-09-30T11:58:40;98510.13;;;22.58;49.54
22481;BME280;11407;56.964;-2.212;2022-09-30T12:01:28;98497.13;;;22.50;49.81
22481;BME280;11407;56.964;-2.212;2022-09-30T12:06:37;98458.00;;;22.21;50.48
22481;BME280;11407;56.964;-2.212;2022-09-30T12:09:11;98480.16;;;22.66;49.45
22481;BME280;11407;56.964;-2.212;2022-09-30T12:12:06;98474.78;;;22.66;49.20
22481;BME280;11407;56.964;-2.212;2022-09-30T12:14:38;98482.63;;;22.68;49.42
22481;BME280;11407;56.964;-2.212;2022-09-30T12:17:16;98466.38;;;22.79;49.50
22481;BME280;11407;56.964;-2.212;2022-09-30T12:19:46;98456.69;;;22.78;49.47
22481;BME280;11407;56.964;-2.212;2022-09-30T12:25:02;98442.56;;;22.66;49.52
22481;BME280;11407;56.964;-2.212;2022-09-30T12:27:45;98446.88;;;22.67;49.68
22481;BME280;11407;56.964;-2.212;2022-09-30T12:30:18;98431.44;;;22.79;49.42
22481;BME280;11407;56.964;-2.212;2022-09-30T12:38:36;98415.19;;;23.07;48.59
22481;BME280;11407;56.964;-2.212;2022-09-30T12:48:59;98418.50;;;22.76;49.43
22481;BME280;11407;56.964;-2.212;2022-09-30T12:51:32;98412.22;;;22.66;49.68
22481;BME280;11407;56.964;-2.212;2022-09-30T12:54:01;98404.47;;;22.69;49.60
22481;BME280;11407;56.964;-2.212;2022-09-30T12:56:30;98403.94;;;22.93;49.22
22481;BME280;11407;56.964;-2.212;2022-09-30T12:58:57;98395.38;;;22.75;49.29
22481;BME280;11407;56.964;-2.212;2022-09-30T13:01:36;98368.59;;;23.01;48.78
22481;BME280;11407;56.964;-2.212;2022-09-30T13:16:58;98346.75;;;22.98;49.14
22481;BME280;11407;56.964;-2.212;2022-09-30T13:32:39;98273.63;;;22.91;49.57
22481;BME280;11407;56.964;-2.212;2022-09-30T13:43:24;98266.59;;;23.43;48.44
22481;BME280;11407;56.964;-2.212;2022-09-30T13:45:53;98264.91;;;23.05;49.45
22481;BME280;11407;56.964;-2.212;2022-09-30T13:48:29;98249.19;;;23.19;49.25
22481;BME280;11407;56.964;-2.212;2022-09-30T13:50:58;98257.09;;;23.35;48.99
22481;BME280;11407;56.964;-2.212;2022-09-30T13:55:59;98241.44;;;23.27;49.30
22481;BME280;11407;56.964;-2.212;2022-09-30T13:58:34;98259.88;;;23.14;49.66
22481;BME280;11407;56.964;-2.212;2022-09-30T14:22:35;98225.25;;;23.59;50.42
22481;BME280;11407;56.964;-2.212;2022-09-30T14:25:02;98199.47;;;23.63;50.33
22481;BME280;11407;56.964;-2.212;2022-09-30T14:35:17;98173.88;;;24.06;49.36
22481;BME280;11407;56.964;-2.212;2022-09-30T14:37:55;98201.03;;;23.95;49.64
22481;BME280;11407;56.964;-2.212;2022-09-30T14:40:28;98209.97;;;24.10;49.68
22481;BME280;11407;56.964;-2.212;2022-09-30T14:42:58;98211.84;;;24.15;49.46
22481;BME280;11407;56.964;-2.212;2022-09-30T14:45:28;98214.84;;;24.28;49.07
22481;BME280;11407;56.964;-2.212;2022-09-30T14:47:58;98212.47;;;24.37;48.66
22481;BME280;11407;56.964;-2.212;2022-09-30T14:50:29;98211.06;;;24.19;49.18
22481;BME280;11407;56.964;-2.212;2022-09-30T14:52:57;98203.50;;;24.11;50.19
22481;BME280;11407;56.964;-2.212;2022-09-30T14:55:33;98206.53;;;24.30;50.26
22481;BME280;11407;56.964;-2.212;2022-09-30T14:58:29;98191.81;;;24.57;49.61
22481;BME280;11407;56.964;-2.212;2022-09-30T15:03:24;98195.03;;;24.64;50.15
22481;BME280;11407;56.964;-2.212;2022-09-30T15:05:50;98202.06;;;24.65;50.23
22481;BME280;11407;56.964;-2.212;2022-09-30T15:08:18;98209.38;;;24.99;49.94
22481;BME280;11407;56.964;-2.212;2022-09-30T15:10:49;98191.31;;;25.30;48.93
22481;BME280;11407;56.964;-2.212;2022-09-30T15:13:16;98187.28;;;25.32;48.60
22481;BME280;11407;56.964;-2.212;2022-09-30T15:15:43;98191.84;;;25.32;48.86
22481;BME280;11407;56.964;-2.212;2022-09-30T15:18:29;98183.44;;;25.53;47.46
22481;BME280;11407;56.964;-2.212;2022-09-30T15:21:13;98186.97;;;25.49;47.27
22481;BME280;11407;56.964;-2.212;2022-09-30T15:23:42;98191.06;;;25.31;47.46
22481;BME280;11407;56.964;-2.212;2022-09-30T15:26:11;98197.22;;;25.52;46.92
22481;BME280;11407;56.964;-2.212;2022-09-30T15:28:36;98187.28;;;25.32;47.18
22481;BME280;11407;56.964;-2.212;2022-09-30T15:31:04;98191.56;;;25.08;48.34
22481;BME280;11407;56.964;-2.212;2022-09-30T15:33:31;98198.31;;;25.21;48.10
22481;BME280;11407;56.964;-2.212;2022-09-30T15:36:02;98204.56;;;25.21;47.65
22481;BME280;11407;56.964;-2.212;2022-09-30T15:38:29;98213.16;;;25.08;47.83
22481;BME280;11407;56.964;-2.212;2022-09-30T15:41:05;98209.94;;;25.21;48.02
22481;BME280;11407;56.964;-2.212;2022-09-30T15:48:47;98257.69;;;25.16;47.71
22481;BME280;11407;56.964;-2.212;2022-09-30T15:53:50;98260.63;;;25.14;46.59
22481;BME280;11407;56.964;-2.212;2022-09-30T15:58:57;98287.56;;;25.09;46.46
22481;BME280;11407;56.964;-2.212;2022-09-30T16:01:24;98298.84;;;24.86;46.93
22481;BME280;11407;56.964;-2.212;2022-09-30T16:03:59;98304.81;;;24.98;46.06
22481;BME280;11407;56.964;-2.212;2022-09-30T16:06:27;98315.56;;;24.93;46.80
22481;BME280;11407;56.964;-2.212;2022-09-30T16:08:57;98320.97;;;24.93;46.02
22481;BME280;11407;56.964;-2.212;2022-09-30T16:11:30;98321.22;;;24.97;46.05
22481;BME280;11407;56.964;-2.212;2022-09-30T16:13:57;98326.38;;;24.98;46.05
22481;BME280;11407;56.964;-2.212;2022-09-30T16:16:26;98326.31;;;24.88;46.56
22481;BME280;11407;56.964;-2.212;2022-09-30T16:18:53;98337.34;;;24.77;46.41
22481;BME280;11407;56.964;-2.212;2022-09-30T16:21:40;98348.06;;;24.62;46.16
22481;BME280;11407;56.964;-2.212;2022-09-30T16:27:19;98362.13;;;24.69;44.59
22481;BME280;11407;56.964;-2.212;2022-09-30T16:29:46;98383.41;;;24.70;45.40
22481;BME280;11407;56.964;-2.212;2022-09-30T16:32:11;98385.19;;;24.45;45.00
22481;BME280;11407;56.964;-2.212;2022-09-30T16:34:38;98394.06;;;24.46;45.19
22481;BME280;11407;56.964;-2.212;2022-09-30T16:37:10;98399.03;;;24.22;44.75
22481;BME280;11407;56.964;-2.212;2022-09-30T16:39:36;98407.66;;;24.29;44.90
22481;BME280;11407;56.964;-2.212;2022-09-30T16:42:01;98415.63;;;24.09;44.99
22481;BME280;11407;56.964;-2.212;2022-09-30T16:44:29;98419.03;;;24.00;44.99
22481;BME280;11407;56.964;-2.212;2022-09-30T16:46:58;98426.78;;;23.91;45.00
22481;BME280;11407;56.964;-2.212;2022-09-30T16:49:24;98418.66;;;23.86;44.63
22481;BME280;11407;56.964;-2.212;2022-09-30T16:51:50;98413.41;;;23.75;43.95
22481;BME280;11407;56.964;-2.212;2022-09-30T16:54:15;98414.84;;;23.82;44.01
22481;BME280;11407;56.964;-2.212;2022-09-30T16:56:40;98425.41;;;23.63;44.43
22481;BME280;11407;56.964;-2.212;2022-09-30T16:59:12;98436.09;;;23.53;43.94
22481;BME280;11407;56.964;-2.212;2022-09-30T17:01:38;98429.75;;;23.37;44.22